• Join FlightAware (Why Join?)
  • Login
  • US Flag 
07:54PM EDT


 

Airport Tracker/Info


-or-


 

Live Flight TrackerFlight Track Log ✈ N6519N ✈ 24-Jul-2013 ✈ KNQA - KHAO

Flight Track Log - Related Links

Times and Time Zones

All times are in EDT time to prevent confusion due to time zone crossing. See the N6519N flight status page for this flight to view local times or setup timezone preferences in your user account.

Time Position Orientation Groundspeed Altitude Reporting Facility
EDT Latitude Longitude Course Direction KTS MPH feet Rate Location/Type
01:38PM 35.3667 -89.8500 360° North 109 125 700  Level KMEM
01:39PM 35.4000 -89.8500 360° North 111 128 1,600 660 Climbing KMEM
01:40PM 35.4333 -89.8500 360° North 119 137 2,200 660 Climbing KMEM
01:41PM 35.4667 -89.8167 39° Northeast 139 160 2,900 720 Climbing KMEM
01:42PM 35.5000 -89.7833 39° Northeast 136 157 3,700 840 Climbing KMEM
01:43PM 35.5167 -89.7500 58° Northeast 134 154 4,600 840 Climbing KMEM
01:44PM 35.5333 -89.7167 58° Northeast 133 153 5,300 780 Climbing KMEM
01:45PM 35.5731 -89.6933 26° Northeast 140 161 6,200 720 Climbing Memphis Center
01:46PM 35.6000 -89.6650 41° Northeast 135 155 6,900 720 Climbing Memphis Center
01:47PM 35.6247 -89.6267 52° Northeast 130 150 7,700 780 Climbing Memphis Center
01:48PM 35.6475 -89.5956 48° Northeast 125 144 8,500 780 Climbing Memphis Center
01:49PM 35.6744 -89.5622 45° Northeast 125 144 9,300 780 Climbing Memphis Center
01:50PM 35.6972 -89.5364 43° Northeast 118 136 10,100 780 Climbing Memphis Center
01:51PM 35.7239 -89.5003 48° Northeast 124 143 10,900 420 Climbing Memphis Center
01:52PM 35.7508 -89.4617 49° Northeast 131 151 11,000  Climbing Memphis Center
01:53PM 35.7839 -89.4203 45° Northeast 145 167 11,000  Level Memphis Center
01:54PM 35.8169 -89.3817 43° Northeast 151 174 11,000  Level Memphis Center
01:55PM 35.8478 -89.3428 46° Northeast 151 174 11,000  Level Memphis Center
01:56PM 35.8767 -89.3042 47° Northeast 151 174 11,000  Level Memphis Center
01:57PM 35.9097 -89.2628 45° Northeast 151 174 11,000  Level Memphis Center
01:58PM 35.9408 -89.2236 46° Northeast 151 174 11,000  Level Memphis Center
01:59PM 35.9717 -89.1850 45° Northeast 146 168 11,000  Level Memphis Center
02:00PM 36.0044 -89.1433 46° Northeast 146 168 11,000  Level Memphis Center
02:01PM 36.0333 -89.1019 49° Northeast 146 168 11,000  Level Memphis Center
02:02PM 36.0664 -89.0628 44° Northeast 146 168 11,000  Level Memphis Center
02:03PM 36.0972 -89.0211 48° Northeast 146 168 11,000  Level Memphis Center
02:04PM 36.1300 -88.9822 44° Northeast 151 174 11,000  Level Memphis Center
02:05PM 36.1631 -88.9406 45° Northeast 151 174 11,000  Level Memphis Center
02:06PM 36.1936 -88.8989 48° Northeast 156 180 11,000  Level Memphis Center
02:07PM 36.2267 -88.8569 46° Northeast 156 180 11,000  Level Memphis Center
02:08PM 36.2594 -88.8153 46° Northeast 156 180 11,000  Level Memphis Center
02:09PM 36.2922 -88.7758 44° Northeast 161 185 11,000  Level Memphis Center
02:10PM 36.3231 -88.7342 47° Northeast 161 185 11,000  Level Memphis Center
02:11PM 36.3539 -88.6922 48° Northeast 161 185 11,000  Level Memphis Center
02:12PM 36.3867 -88.6531 44° Northeast 161 185 11,000  Level Memphis Center
02:13PM 36.4153 -88.6136 48° Northeast 161 185 11,000  Level Memphis Center
02:14PM 36.4481 -88.5742 44° Northeast 161 185 11,000  Level Memphis Center
02:15PM 36.4786 -88.5322 48° Northeast 161 185 11,000  Level Memphis Center
02:16PM 36.5094 -88.4931 46° Northeast 161 185 11,000  Level Memphis Center
02:17PM 36.5400 -88.4533 46° Northeast 161 185 11,000  Level Memphis Center
02:18PM 36.5686 -88.4139 48° Northeast 156 180 11,000  Level Memphis Center
02:19PM 36.5992 -88.3744 46° Northeast 156 180 11,000  Level Memphis Center
02:20PM 36.6278 -88.3375 46° Northeast 150 173 11,000  Level Memphis Center
02:21PM 36.6583 -88.2981 46° Northeast 150 173 11,000  Level Memphis Center
02:22PM 36.6889 -88.2583 46° Northeast 145 167 11,000  Level Memphis Center
02:23PM 36.7175 -88.2189 48° Northeast 145 167 11,000  Level Memphis Center
02:24PM 36.7481 -88.1792 46° Northeast 145 167 11,000  Level Memphis Center
02:25PM 36.7808 -88.1394 44° Northeast 145 167 11,000  Level Memphis Center
02:26PM 36.8069 -88.0972 52° Northeast 151 174 11,000  Level Memphis Center
02:27PM 36.8397 -88.0575 44° Northeast 151 174 11,000  Level Memphis Center
02:28PM 36.8639 -88.0231 49° Northeast 151 174 11,000  Level Memphis Center
02:29PM 36.8967 -87.9806 46° Northeast 151 174 11,000  Level Memphis Center
02:30PM 36.9250 -87.9433 46° Northeast 151 174 11,000  Level Memphis Center
02:31PM 36.9575 -87.9008 46° Northeast 151 174 11,000  Level Memphis Center
02:32PM 36.9900 -87.8583 46° Northeast 151 174 11,000  Level Memphis Center
02:33PM 37.0183 -87.8186 48° Northeast 151 174 11,000  Level Memphis Center
02:34PM 37.0508 -87.7708 50° Northeast 156 180 11,000  Level Memphis Center
02:35PM 37.0811 -87.7358 43° Northeast 151 174 11,000  Level Memphis Center
02:36PM 37.1117 -87.6933 48° Northeast 151 174 11,000  Level Memphis Center
02:37PM 37.1419 -87.6533 46° Northeast 160 184 11,000  Level Memphis Center
02:38PM 37.1678 -87.6186 47° Northeast 160 184 11,000  Level Indianapolis Center
02:39PM 37.1989 -87.5767 47° Northeast 162 186 11,000  Level Indianapolis Center
02:40PM 37.2300 -87.5350 47° Northeast 163 188 11,000  Level Indianapolis Center
02:41PM 37.2592 -87.4939 48° Northeast 158 182 11,000  Level Indianapolis Center
02:42PM 37.2908 -87.4519 46° Northeast 161 185 11,000  Level Indianapolis Center
02:43PM 37.3206 -87.4128 46° Northeast 156 180 11,000  Level Indianapolis Center
02:44PM 37.3517 -87.3700 48° Northeast 161 185 11,000  Level Indianapolis Center
02:45PM 37.3875 -87.3228 46° Northeast 160 184 11,000  Level Indianapolis Center
02:46PM 37.4178 -87.2814 47° Northeast 159 183 11,000  Level Indianapolis Center
02:47PM 37.4481 -87.2400 47° Northeast 161 185 11,000  Level Indianapolis Center
02:48PM 37.4786 -87.1989 47° Northeast 159 183 11,000  Level Indianapolis Center
02:49PM 37.5100 -87.1564 47° Northeast 163 188 11,000  Level Indianapolis Center
02:50PM 37.5406 -87.1142 48° Northeast 159 183 11,000  Level Indianapolis Center
02:52PM 37.5706 -87.0725 48° Northeast 161 185 11,000  Level Indianapolis Center
02:53PM 37.6014 -87.0317 46° Northeast 160 184 11,000  Level Indianapolis Center
02:54PM 37.6322 -86.9906 47° Northeast 161 185 11,000  Level Indianapolis Center
02:55PM 37.6681 -86.9408 48° Northeast 161 185 11,000  Level Indianapolis Center
02:56PM 37.6994 -86.8997 46° Northeast 162 186 11,000  Level Indianapolis Center
02:57PM 37.7300 -86.8556 49° Northeast 165 190 11,000  Level Indianapolis Center
02:58PM 37.7608 -86.8136 47° Northeast 164 189 11,000  Level Indianapolis Center
02:59PM 37.7906 -86.7722 48° Northeast 161 185 11,000  Level Indianapolis Center
03:00PM 37.8206 -86.7300 48° Northeast 161 185 11,000  Level Indianapolis Center
03:01PM 37.8578 -86.6800 47° Northeast 161 185 11,000  Level Indianapolis Center
03:02PM 37.8886 -86.6378 47° Northeast 163 188 11,000  Level Indianapolis Center
03:03PM 37.9181 -86.5958 48° Northeast 160 184 11,000  Level Indianapolis Center
03:04PM 37.9483 -86.5544 47° Northeast 160 184 11,000  Level Indianapolis Center
03:05PM 37.9783 -86.5133 47° Northeast 160 184 11,000  Level Indianapolis Center
03:06PM 38.0064 -86.4717 49° Northeast 157 181 11,000  Level Indianapolis Center
03:07PM 38.0419 -86.4233 47° Northeast 155 178 11,000  Level Indianapolis Center
03:08PM 38.0731 -86.3811 47° Northeast 161 185 11,000  Level Indianapolis Center
03:09PM 38.1036 -86.3397 47° Northeast 161 185 11,000  Level Indianapolis Center
03:10PM 38.1322 -86.2994 48° Northeast 156 180 11,000  Level Indianapolis Center
03:11PM 38.1614 -86.2561 49° Northeast 160 184 11,000  Level Indianapolis Center
03:12PM 38.1917 -86.2158 46° Northeast 158 182 11,000  Level Indianapolis Center
03:13PM 38.2211 -86.1744 48° Northeast 158 182 11,000  Level Indianapolis Center
03:14PM 38.2561 -86.1253 48° Northeast 156 180 11,000  Level Indianapolis Center
03:15PM 38.2847 -86.0831 49° Northeast 157 181 11,000  Level Indianapolis Center
03:16PM 38.3136 -86.0425 48° Northeast 155 178 11,000  Level Indianapolis Center
03:17PM 38.3436 -86.0008 47° Northeast 159 183 11,000  Level Indianapolis Center
03:18PM 38.3733 -85.9597 47° Northeast 158 182 11,000  Level Indianapolis Center
03:19PM 38.4031 -85.9172 48° Northeast 160 184 11,000  Level Indianapolis Center
03:20PM 38.4378 -85.8667 49° Northeast 158 182 11,000  Level Indianapolis Center
03:22PM 38.4683 -85.8242 47° Northeast 160 184 11,000  Level Indianapolis Center
03:23PM 38.4972 -85.7817 49° Northeast 160 184 11,000  Level Indianapolis Center
03:24PM 38.5281 -85.7397 47° Northeast 160 184 11,000  Level Indianapolis Center
03:25PM 38.5586 -85.6981 47° Northeast 161 185 11,000  Level Indianapolis Center
03:26PM 38.5869 -85.6553 50° Northeast 159 183 11,000  Level Indianapolis Center
03:27PM 38.6169 -85.6128 48° Northeast 160 184 11,000  Level Indianapolis Center
03:28PM 38.6511 -85.5625 49° Northeast 160 184 11,000  Level Indianapolis Center
03:29PM 38.6811 -85.5214 47° Northeast 158 182 11,000  Level Indianapolis Center
03:30PM 38.7106 -85.4783 49° Northeast 161 185 11,000 -60 Level Indianapolis Center
03:31PM 38.7389 -85.4361 49° Northeast 159 183 10,900 -300 Descending Indianapolis Center
03:32PM 38.7681 -85.3864 53° Northeast 173 199 10,400 -540 Descending Indianapolis Center
03:33PM 38.8075 -85.3275 49° Northeast 180 207 9,800 -540 Descending Indianapolis Center
03:34PM 38.8403 -85.2800 48° Northeast 180 207 9,300 -480 Descending Indianapolis Center
03:35PM 38.8711 -85.2308 51° Northeast 178 205 8,900 -180 Descending Indianapolis Center
03:36PM 38.9031 -85.1889 46° Northeast 167 192 9,000 -120 Climbing Indianapolis Center
03:37PM 38.9317 -85.1453 50° Northeast 162 186 8,700 -420 Descending Indianapolis Center
03:38PM 38.9697 -85.0889 49° Northeast 173 199 8,200 -540 Descending Indianapolis Center
03:39PM 39.0050 -85.0442 45° Northeast 177 204 7,700 -540 Descending Indianapolis Center
03:40PM 39.0392 -85.0008 45° Northeast 174 200 7,200 -540 Descending Indianapolis Center
03:41PM 39.0722 -84.9594 44° Northeast 169 194 6,700 -540 Descending Indianapolis Center
03:42PM 39.1025 -84.9144 49° Northeast 167 192 6,200 -540 Descending Indianapolis Center
03:43PM 39.1375 -84.8639 48° Northeast 169 194 5,700 -420 Descending Indianapolis Center
03:44PM 39.1675 -84.8183 50° Northeast 166 191 5,400 -480 Descending Indianapolis Center
03:45PM 39.1983 -84.7719 49° Northeast 163 188 4,700 -540 Descending Indianapolis Center
03:46PM 39.2278 -84.7269 50° Northeast 163 188 4,400 -300 Descending Indianapolis Center